sensor_id;sensor_type;location;lat;lon;timestamp;P1;durP1;ratioP1;P2;durP2;ratioP2
27003;SDS011;14546;47.590;19.022;2022-10-31T00:00:40;69.60;;;39.17;;
27003;SDS011;14546;47.590;19.022;2022-10-31T00:03:06;65.55;;;38.45;;
27003;SDS011;14546;47.590;19.022;2022-10-31T00:05:32;63.95;;;37.78;;
27003;SDS011;14546;47.590;19.022;2022-10-31T00:07:58;64.68;;;36.97;;
27003;SDS011;14546;47.590;19.022;2022-10-31T00:10:24;63.63;;;36.53;;
27003;SDS011;14546;47.590;19.022;2022-10-31T00:12:50;66.20;;;37.15;;
27003;SDS011;14546;47.590;19.022;2022-10-31T00:15:16;65.78;;;37.30;;
27003;SDS011;14546;47.590;19.022;2022-10-31T00:17:42;64.50;;;37.45;;
27003;SDS011;14546;47.590;19.022;2022-10-31T00:20:09;67.82;;;38.35;;
27003;SDS011;14546;47.590;19.022;2022-10-31T00:22:35;65.20;;;38.72;;
27003;SDS011;14546;47.590;19.022;2022-10-31T00:25:01;70.32;;;40.67;;
27003;SDS011;14546;47.590;19.022;2022-10-31T00:27:27;72.15;;;41.28;;
27003;SDS011;14546;47.590;19.022;2022-10-31T00:29:53;73.22;;;40.58;;
27003;SDS011;14546;47.590;19.022;2022-10-31T00:32:19;75.88;;;41.05;;
27003;SDS011;14546;47.590;19.022;2022-10-31T00:34:45;81.72;;;40.38;;
27003;SDS011;14546;47.590;19.022;2022-10-31T00:37:11;70.25;;;38.72;;
27003;SDS011;14546;47.590;19.022;2022-10-31T00:39:37;71.63;;;40.38;;
27003;SDS011;14546;47.590;19.022;2022-10-31T00:42:03;72.07;;;40.38;;
27003;SDS011;14546;47.590;19.022;2022-10-31T00:44:29;70.30;;;39.45;;
27003;SDS011;14546;47.590;19.022;2022-10-31T00:46:55;67.72;;;38.08;;
27003;SDS011;14546;47.590;19.022;2022-10-31T00:49:21;74.00;;;40.08;;
27003;SDS011;14546;47.590;19.022;2022-10-31T00:51:47;78.93;;;41.25;;
27003;SDS011;14546;47.590;19.022;2022-10-31T00:54:13;83.90;;;43.65;;
27003;SDS011;14546;47.590;19.022;2022-10-31T00:56:39;79.13;;;41.70;;
27003;SDS011;14546;47.590;19.022;2022-10-31T00:59:05;79.68;;;42.78;;
27003;SDS011;14546;47.590;19.022;2022-10-31T01:01:31;88.95;;;43.45;;
27003;SDS011;14546;47.590;19.022;2022-10-31T01:03:57;81.15;;;42.35;;
27003;SDS011;14546;47.590;19.022;2022-10-31T01:06:23;88.47;;;44.42;;
27003;SDS011;14546;47.590;19.022;2022-10-31T01:08:49;88.35;;;42.70;;
27003;SDS011;14546;47.590;19.022;2022-10-31T01:11:20;92.45;;;42.55;;
27003;SDS011;14546;47.590;19.022;2022-10-31T01:13:46;91.15;;;44.78;;
27003;SDS011;14546;47.590;19.022;2022-10-31T01:16:14;83.65;;;42.25;;
27003;SDS011;14546;47.590;19.022;2022-10-31T01:18:40;85.55;;;45.13;;
27003;SDS011;14546;47.590;19.022;2022-10-31T01:21:11;83.30;;;44.65;;
27003;SDS011;14546;47.590;19.022;2022-10-31T01:23:37;85.63;;;42.67;;
27003;SDS011;14546;47.590;19.022;2022-10-31T01:26:05;94.82;;;43.58;;
27003;SDS011;14546;47.590;19.022;2022-10-31T01:28:31;78.55;;;40.70;;
27003;SDS011;14546;47.590;19.022;2022-10-31T01:31:04;80.55;;;39.33;;
27003;SDS011;14546;47.590;19.022;2022-10-31T01:33:31;69.28;;;38.35;;
27003;SDS011;14546;47.590;19.022;2022-10-31T01:35:57;65.57;;;38.55;;
27003;SDS011;14546;47.590;19.022;2022-10-31T01:38:23;63.17;;;36.53;;
27003;SDS011;14546;47.590;19.022;2022-10-31T01:40:49;67.05;;;36.45;;
27003;SDS011;14546;47.590;19.022;2022-10-31T01:43:17;64.60;;;36.63;;
27003;SDS011;14546;47.590;19.022;2022-10-31T01:45:44;64.03;;;36.00;;
27003;SDS011;14546;47.590;19.022;2022-10-31T01:48:13;65.60;;;36.38;;
27003;SDS011;14546;47.590;19.022;2022-10-31T01:50:41;63.60;;;36.13;;
27003;SDS011;14546;47.590;19.022;2022-10-31T01:53:09;74.32;;;35.92;;
27003;SDS011;14546;47.590;19.022;2022-10-31T01:55:38;75.20;;;35.65;;
27003;SDS011;14546;47.590;19.022;2022-10-31T01:58:07;72.70;;;35.75;;
27003;SDS011;14546;47.590;19.022;2022-10-31T02:00:35;69.38;;;35.70;;
27003;SDS011;14546;47.590;19.022;2022-10-31T02:03:01;75.28;;;36.70;;
27003;SDS011;14546;47.590;19.022;2022-10-31T02:05:28;76.97;;;38.05;;
27003;SDS011;14546;47.590;19.022;2022-10-31T02:10:33;184.73;;;39.50;;
27003;SDS011;14546;47.590;19.022;2022-10-31T02:13:00;93.93;;;37.78;;
27003;SDS011;14546;47.590;19.022;2022-10-31T02:15:27;91.75;;;39.88;;
27003;SDS011;14546;47.590;19.022;2022-10-31T02:17:54;82.93;;;39.50;;
27003;SDS011;14546;47.590;19.022;2022-10-31T02:20:20;147.20;;;39.72;;
27003;SDS011;14546;47.590;19.022;2022-10-31T02:31:23;112.53;;;37.58;;
27003;SDS011;14546;47.590;19.022;2022-10-31T02:33:53;80.82;;;38.35;;
27003;SDS011;14546;47.590;19.022;2022-10-31T02:38:52;77.80;;;34.10;;
27003;SDS011;14546;47.590;19.022;2022-10-31T02:46:16;80.35;;;35.40;;
27003;SDS011;14546;47.590;19.022;2022-10-31T02:48:45;92.40;;;36.00;;
27003;SDS011;14546;47.590;19.022;2022-10-31T02:51:12;234.73;;;39.97;;
27003;SDS011;14546;47.590;19.022;2022-10-31T02:53:39;136.93;;;37.88;;
27003;SDS011;14546;47.590;19.022;2022-10-31T02:58:31;72.15;;;36.00;;
27003;SDS011;14546;47.590;19.022;2022-10-31T03:08:35;60.85;;;33.65;;
27003;SDS011;14546;47.590;19.022;2022-10-31T03:11:05;63.25;;;33.85;;
27003;SDS011;14546;47.590;19.022;2022-10-31T03:16:22;61.83;;;33.22;;
27003;SDS011;14546;47.590;19.022;2022-10-31T03:21:18;55.97;;;30.90;;
27003;SDS011;14546;47.590;19.022;2022-10-31T03:23:46;71.00;;;34.70;;
27003;SDS011;14546;47.590;19.022;2022-10-31T03:26:13;359.38;;;37.97;;
27003;SDS011;14546;47.590;19.022;2022-10-31T03:28:45;88.53;;;34.42;;
27003;SDS011;14546;47.590;19.022;2022-10-31T03:31:12;70.65;;;35.00;;
27003;SDS011;14546;47.590;19.022;2022-10-31T03:33:40;72.93;;;35.42;;
27003;SDS011;14546;47.590;19.022;2022-10-31T03:36:08;67.47;;;32.72;;
27003;SDS011;14546;47.590;19.022;2022-10-31T03:38:35;78.32;;;35.78;;
27003;SDS011;14546;47.590;19.022;2022-10-31T03:41:03;67.03;;;34.42;;
27003;SDS011;14546;47.590;19.022;2022-10-31T03:43:31;81.88;;;36.95;;
27003;SDS011;14546;47.590;19.022;2022-10-31T03:45:58;77.55;;;36.03;;
27003;SDS011;14546;47.590;19.022;2022-10-31T03:48:24;178.10;;;37.70;;
27003;SDS011;14546;47.590;19.022;2022-10-31T03:53:53;141.77;;;38.00;;
27003;SDS011;14546;47.590;19.022;2022-10-31T03:56:22;103.75;;;37.90;;
27003;SDS011;14546;47.590;19.022;2022-10-31T03:58:57;96.18;;;39.88;;
27003;SDS011;14546;47.590;19.022;2022-10-31T04:01:24;83.72;;;39.42;;
27003;SDS011;14546;47.590;19.022;2022-10-31T04:03:51;81.55;;;38.05;;
27003;SDS011;14546;47.590;19.022;2022-10-31T04:06:17;77.35;;;37.85;;
27003;SDS011;14546;47.590;19.022;2022-10-31T04:08:45;76.22;;;37.72;;
27003;SDS011;14546;47.590;19.022;2022-10-31T04:11:14;86.22;;;38.45;;
27003;SDS011;14546;47.590;19.022;2022-10-31T04:13:40;82.18;;;37.05;;
27003;SDS011;14546;47.590;19.022;2022-10-31T04:16:08;102.47;;;38.33;;
27003;SDS011;14546;47.590;19.022;2022-10-31T04:18:34;84.65;;;37.90;;
27003;SDS011;14546;47.590;19.022;2022-10-31T04:21:01;283.85;;;40.17;;
27003;SDS011;14546;47.590;19.022;2022-10-31T04:23:27;78.53;;;37.95;;
27003;SDS011;14546;47.590;19.022;2022-10-31T04:25:53;78.75;;;37.75;;
27003;SDS011;14546;47.590;19.022;2022-10-31T04:28:19;82.30;;;37.15;;
27003;SDS011;14546;47.590;19.022;2022-10-31T04:30:45;82.00;;;40.00;;
27003;SDS011;14546;47.590;19.022;2022-10-31T04:33:11;104.30;;;40.35;;
27003;SDS011;14546;47.590;19.022;2022-10-31T04:35:37;93.13;;;40.53;;
27003;SDS011;14546;47.590;19.022;2022-10-31T04:38:03;197.55;;;40.20;;
27003;SDS011;14546;47.590;19.022;2022-10-31T04:40:29;108.70;;;42.00;;
27003;SDS011;14546;47.590;19.022;2022-10-31T04:42:55;107.00;;;42.20;;
27003;SDS011;14546;47.590;19.022;2022-10-31T04:45:21;293.15;;;39.80;;
27003;SDS011;14546;47.590;19.022;2022-10-31T04:47:47;84.05;;;37.20;;
27003;SDS011;14546;47.590;19.022;2022-10-31T04:50:13;87.55;;;37.30;;
27003;SDS011;14546;47.590;19.022;2022-10-31T04:52:40;387.77;;;39.05;;
27003;SDS011;14546;47.590;19.022;2022-10-31T04:55:06;96.57;;;36.50;;
27003;SDS011;14546;47.590;19.022;2022-10-31T04:57:32;91.57;;;36.25;;
27003;SDS011;14546;47.590;19.022;2022-10-31T04:59:58;103.40;;;37.58;;
27003;SDS011;14546;47.590;19.022;2022-10-31T05:02:24;276.42;;;37.42;;
27003;SDS011;14546;47.590;19.022;2022-10-31T05:04:50;82.13;;;35.10;;
27003;SDS011;14546;47.590;19.022;2022-10-31T05:07:16;209.15;;;34.90;;
27003;SDS011;14546;47.590;19.022;2022-10-31T05:09:42;113.07;;;34.65;;
27003;SDS011;14546;47.590;19.022;2022-10-31T05:12:08;74.68;;;31.73;;
27003;SDS011;14546;47.590;19.022;2022-10-31T05:14:34;83.05;;;35.30;;
27003;SDS011;14546;47.590;19.022;2022-10-31T05:17:00;76.55;;;35.80;;
27003;SDS011;14546;47.590;19.022;2022-10-31T05:19:26;72.45;;;33.83;;
27003;SDS011;14546;47.590;19.022;2022-10-31T05:21:52;73.80;;;34.60;;
27003;SDS011;14546;47.590;19.022;2022-10-31T05:24:18;194.05;;;36.38;;
27003;SDS011;14546;47.590;19.022;2022-10-31T05:26:46;97.25;;;35.55;;
27003;SDS011;14546;47.590;19.022;2022-10-31T05:29:12;79.50;;;35.22;;
27003;SDS011;14546;47.590;19.022;2022-10-31T05:31:38;73.10;;;32.88;;
27003;SDS011;14546;47.590;19.022;2022-10-31T05:34:04;88.35;;;33.92;;
27003;SDS011;14546;47.590;19.022;2022-10-31T05:36:30;68.90;;;33.15;;
27003;SDS011;14546;47.590;19.022;2022-10-31T05:38:56;79.60;;;34.20;;
27003;SDS011;14546;47.590;19.022;2022-10-31T05:41:22;87.07;;;36.38;;
27003;SDS011;14546;47.590;19.022;2022-10-31T05:43:48;97.85;;;35.72;;
27003;SDS011;14546;47.590;19.022;2022-10-31T05:46:14;136.18;;;37.55;;
27003;SDS011;14546;47.590;19.022;2022-10-31T05:48:40;90.72;;;38.13;;
27003;SDS011;14546;47.590;19.022;2022-10-31T05:51:06;117.65;;;39.22;;
27003;SDS011;14546;47.590;19.022;2022-10-31T05:53:32;107.70;;;39.22;;
27003;SDS011;14546;47.590;19.022;2022-10-31T05:55:58;88.00;;;38.10;;
27003;SDS011;14546;47.590;19.022;2022-10-31T05:58:24;116.82;;;37.50;;
27003;SDS011;14546;47.590;19.022;2022-10-31T06:00:50;85.85;;;37.47;;
27003;SDS011;14546;47.590;19.022;2022-10-31T06:03:16;81.45;;;38.33;;
27003;SDS011;14546;47.590;19.022;2022-10-31T06:05:42;87.40;;;38.55;;
27003;SDS011;14546;47.590;19.022;2022-10-31T06:08:08;111.63;;;39.90;;
27003;SDS011;14546;47.590;19.022;2022-10-31T06:10:34;77.18;;;37.15;;
27003;SDS011;14546;47.590;19.022;2022-10-31T06:13:00;83.88;;;36.45;;
27003;SDS011;14546;47.590;19.022;2022-10-31T06:15:26;70.57;;;34.75;;
27003;SDS011;14546;47.590;19.022;2022-10-31T06:18:02;77.78;;;34.78;;
27003;SDS011;14546;47.590;19.022;2022-10-31T06:20:28;66.32;;;33.28;;
27003;SDS011;14546;47.590;19.022;2022-10-31T06:22:54;67.40;;;33.25;;
27003;SDS011;14546;47.590;19.022;2022-10-31T06:25:20;66.80;;;32.83;;
27003;SDS011;14546;47.590;19.022;2022-10-31T06:27:46;71.63;;;33.80;;
27003;SDS011;14546;47.590;19.022;2022-10-31T06:30:12;72.78;;;33.45;;
27003;SDS011;14546;47.590;19.022;2022-10-31T06:32:38;70.68;;;34.05;;
27003;SDS011;14546;47.590;19.022;2022-10-31T06:35:04;73.60;;;34.53;;
27003;SDS011;14546;47.590;19.022;2022-10-31T06:37:31;75.88;;;34.00;;
27003;SDS011;14546;47.590;19.022;2022-10-31T06:39:57;75.07;;;33.75;;
27003;SDS011;14546;47.590;19.022;2022-10-31T06:42:23;71.13;;;33.30;;
27003;SDS011;14546;47.590;19.022;2022-10-31T06:44:49;80.35;;;33.80;;
27003;SDS011;14546;47.590;19.022;2022-10-31T06:47:14;68.82;;;32.50;;
27003;SDS011;14546;47.590;19.022;2022-10-31T06:49:40;84.95;;;35.00;;
27003;SDS011;14546;47.590;19.022;2022-10-31T06:52:06;73.53;;;33.53;;
27003;SDS011;14546;47.590;19.022;2022-10-31T06:54:32;81.47;;;34.25;;
27003;SDS011;14546;47.590;19.022;2022-10-31T06:56:58;84.95;;;34.95;;
27003;SDS011;14546;47.590;19.022;2022-10-31T06:59:24;58.75;;;31.17;;
27003;SDS011;14546;47.590;19.022;2022-10-31T07:01:50;78.60;;;34.50;;
27003;SDS011;14546;47.590;19.022;2022-10-31T07:04:16;69.18;;;32.65;;
27003;SDS011;14546;47.590;19.022;2022-10-31T07:06:42;72.82;;;33.95;;
27003;SDS011;14546;47.590;19.022;2022-10-31T07:09:08;87.63;;;36.70;;
27003;SDS011;14546;47.590;19.022;2022-10-31T07:11:34;85.85;;;36.08;;
27003;SDS011;14546;47.590;19.022;2022-10-31T07:14:00;107.07;;;36.50;;
27003;SDS011;14546;47.590;19.022;2022-10-31T07:16:26;132.90;;;37.90;;
27003;SDS011;14546;47.590;19.022;2022-10-31T07:18:52;80.45;;;35.70;;
27003;SDS011;14546;47.590;19.022;2022-10-31T07:21:19;82.65;;;36.33;;
27003;SDS011;14546;47.590;19.022;2022-10-31T07:23:47;87.45;;;36.58;;
27003;SDS011;14546;47.590;19.022;2022-10-31T07:26:14;89.10;;;37.42;;
27003;SDS011;14546;47.590;19.022;2022-10-31T07:28:40;84.88;;;35.55;;
27003;SDS011;14546;47.590;19.022;2022-10-31T07:31:06;149.75;;;35.58;;
27003;SDS011;14546;47.590;19.022;2022-10-31T07:33:32;112.80;;;35.03;;
27003;SDS011;14546;47.590;19.022;2022-10-31T07:35:59;89.55;;;36.60;;
27003;SDS011;14546;47.590;19.022;2022-10-31T07:38:25;81.93;;;36.03;;
27003;SDS011;14546;47.590;19.022;2022-10-31T07:40:52;80.78;;;34.65;;
27003;SDS011;14546;47.590;19.022;2022-10-31T07:43:18;74.15;;;33.67;;
27003;SDS011;14546;47.590;19.022;2022-10-31T07:45:48;85.15;;;36.20;;
27003;SDS011;14546;47.590;19.022;2022-10-31T07:48:14;77.18;;;35.25;;
27003;SDS011;14546;47.590;19.022;2022-10-31T07:50:40;79.95;;;35.47;;
27003;SDS011;14546;47.590;19.022;2022-10-31T07:53:07;82.72;;;36.30;;
27003;SDS011;14546;47.590;19.022;2022-10-31T07:55:34;93.63;;;37.25;;
27003;SDS011;14546;47.590;19.022;2022-10-31T07:58:04;83.10;;;36.35;;
27003;SDS011;14546;47.590;19.022;2022-10-31T08:00:31;95.97;;;35.67;;
27003;SDS011;14546;47.590;19.022;2022-10-31T08:03:16;100.88;;;35.30;;
27003;SDS011;14546;47.590;19.022;2022-10-31T08:05:43;78.60;;;34.40;;
27003;SDS011;14546;47.590;19.022;2022-10-31T08:08:12;73.60;;;32.92;;
27003;SDS011;14546;47.590;19.022;2022-10-31T08:10:38;63.20;;;31.35;;
27003;SDS011;14546;47.590;19.022;2022-10-31T08:13:09;73.38;;;33.35;;
27003;SDS011;14546;47.590;19.022;2022-10-31T08:15:36;80.93;;;34.85;;
27003;SDS011;14546;47.590;19.022;2022-10-31T08:18:05;81.93;;;35.33;;
27003;SDS011;14546;47.590;19.022;2022-10-31T08:20:31;85.57;;;35.95;;
27003;SDS011;14546;47.590;19.022;2022-10-31T08:22:57;93.43;;;32.47;;
27003;SDS011;14546;47.590;19.022;2022-10-31T08:25:24;65.63;;;30.88;;
27003;SDS011;14546;47.590;19.022;2022-10-31T08:27:51;71.85;;;31.92;;
27003;SDS011;14546;47.590;19.022;2022-10-31T08:30:17;72.65;;;32.45;;
27003;SDS011;14546;47.590;19.022;2022-10-31T08:32:44;70.25;;;32.90;;
27003;SDS011;14546;47.590;19.022;2022-10-31T08:35:09;68.15;;;30.92;;
27003;SDS011;14546;47.590;19.022;2022-10-31T08:37:36;65.35;;;30.88;;
27003;SDS011;14546;47.590;19.022;2022-10-31T08:40:02;69.93;;;32.58;;
27003;SDS011;14546;47.590;19.022;2022-10-31T08:42:28;69.32;;;32.25;;
27003;SDS011;14546;47.590;19.022;2022-10-31T08:44:54;66.70;;;32.42;;
27003;SDS011;14546;47.590;19.022;2022-10-31T08:47:20;67.65;;;32.00;;
27003;SDS011;14546;47.590;19.022;2022-10-31T08:49:46;63.60;;;31.13;;
27003;SDS011;14546;47.590;19.022;2022-10-31T08:52:12;62.25;;;30.63;;
27003;SDS011;14546;47.590;19.022;2022-10-31T08:54:39;60.53;;;30.83;;
27003;SDS011;14546;47.590;19.022;2022-10-31T08:57:05;61.60;;;30.98;;
27003;SDS011;14546;47.590;19.022;2022-10-31T08:59:31;59.75;;;30.35;;
27003;SDS011;14546;47.590;19.022;2022-10-31T09:01:58;56.17;;;29.40;;
27003;SDS011;14546;47.590;19.022;2022-10-31T09:04:23;59.38;;;30.33;;
27003;SDS011;14546;47.590;19.022;2022-10-31T09:06:49;62.38;;;29.40;;
27003;SDS011;14546;47.590;19.022;2022-10-31T09:09:15;63.05;;;30.45;;
27003;SDS011;14546;47.590;19.022;2022-10-31T09:11:41;62.17;;;29.92;;
27003;SDS011;14546;47.590;19.022;2022-10-31T09:14:07;68.22;;;32.53;;
27003;SDS011;14546;47.590;19.022;2022-10-31T09:16:33;66.63;;;32.20;;
27003;SDS011;14546;47.590;19.022;2022-10-31T09:18:59;63.10;;;31.13;;
27003;SDS011;14546;47.590;19.022;2022-10-31T09:21:25;57.63;;;30.27;;
27003;SDS011;14546;47.590;19.022;2022-10-31T09:23:51;60.15;;;31.70;;
27003;SDS011;14546;47.590;19.022;2022-10-31T09:26:18;66.80;;;32.17;;
27003;SDS011;14546;47.590;19.022;2022-10-31T09:28:45;63.85;;;32.65;;
27003;SDS011;14546;47.590;19.022;2022-10-31T09:31:11;66.68;;;32.38;;
27003;SDS011;14546;47.590;19.022;2022-10-31T09:33:37;67.15;;;32.08;;
27003;SDS011;14546;47.590;19.022;2022-10-31T09:36:03;62.47;;;32.08;;
27003;SDS011;14546;47.590;19.022;2022-10-31T09:38:29;60.33;;;31.08;;
27003;SDS011;14546;47.590;19.022;2022-10-31T09:40:57;63.95;;;30.70;;
27003;SDS011;14546;47.590;19.022;2022-10-31T09:51:14;60.83;;;30.90;;
27003;SDS011;14546;47.590;19.022;2022-10-31T09:56:20;56.20;;;29.92;;
27003;SDS011;14546;47.590;19.022;2022-10-31T09:58:50;57.40;;;29.40;;
27003;SDS011;14546;47.590;19.022;2022-10-31T10:03:48;58.67;;;30.10;;
27003;SDS011;14546;47.590;19.022;2022-10-31T10:08:42;57.63;;;30.33;;
27003;SDS011;14546;47.590;19.022;2022-10-31T10:18:54;55.38;;;29.85;;
27003;SDS011;14546;47.590;19.022;2022-10-31T10:26:37;54.97;;;28.52;;
27003;SDS011;14546;47.590;19.022;2022-10-31T10:29:16;57.15;;;29.92;;
27003;SDS011;14546;47.590;19.022;2022-10-31T10:31:43;59.13;;;30.45;;
27003;SDS011;14546;47.590;19.022;2022-10-31T10:34:18;59.88;;;31.08;;
27003;SDS011;14546;47.590;19.022;2022-10-31T10:37:03;54.50;;;29.95;;
27003;SDS011;14546;47.590;19.022;2022-10-31T10:39:32;61.75;;;30.52;;
27003;SDS011;14546;47.590;19.022;2022-10-31T10:42:00;63.95;;;32.15;;
27003;SDS011;14546;47.590;19.022;2022-10-31T10:44:47;67.88;;;34.08;;
27003;SDS011;14546;47.590;19.022;2022-10-31T10:47:42;63.78;;;32.80;;
27003;SDS011;14546;47.590;19.022;2022-10-31T10:50:17;68.57;;;33.88;;
27003;SDS011;14546;47.590;19.022;2022-10-31T11:02:46;58.28;;;32.10;;
27003;SDS011;14546;47.590;19.022;2022-10-31T11:07:57;59.00;;;32.20;;
27003;SDS011;14546;47.590;19.022;2022-10-31T11:10:23;59.45;;;31.83;;
27003;SDS011;14546;47.590;19.022;2022-10-31T11:15:36;70.50;;;32.70;;
27003;SDS011;14546;47.590;19.022;2022-10-31T11:18:02;65.70;;;33.65;;
27003;SDS011;14546;47.590;19.022;2022-10-31T11:20:30;72.05;;;35.38;;
27003;SDS011;14546;47.590;19.022;2022-10-31T11:25:47;68.28;;;34.80;;
27003;SDS011;14546;47.590;19.022;2022-10-31T11:28:14;72.40;;;34.05;;
27003;SDS011;14546;47.590;19.022;2022-10-31T11:30:47;77.70;;;35.38;;
27003;SDS011;14546;47.590;19.022;2022-10-31T11:33:21;79.28;;;35.08;;
27003;SDS011;14546;47.590;19.022;2022-10-31T11:35:48;76.97;;;35.15;;
27003;SDS011;14546;47.590;19.022;2022-10-31T11:38:15;74.95;;;35.00;;
27003;SDS011;14546;47.590;19.022;2022-10-31T11:40:51;73.20;;;35.25;;
27003;SDS011;14546;47.590;19.022;2022-10-31T11:43:17;74.28;;;35.70;;
27003;SDS011;14546;47.590;19.022;2022-10-31T11:45:43;72.07;;;32.78;;
27003;SDS011;14546;47.590;19.022;2022-10-31T11:48:16;69.45;;;35.05;;
27003;SDS011;14546;47.590;19.022;2022-10-31T11:50:47;80.22;;;35.33;;
27003;SDS011;14546;47.590;19.022;2022-10-31T11:53:15;80.93;;;35.95;;
27003;SDS011;14546;47.590;19.022;2022-10-31T11:55:41;81.65;;;37.33;;
27003;SDS011;14546;47.590;19.022;2022-10-31T11:58:23;79.28;;;35.60;;
27003;SDS011;14546;47.590;19.022;2022-10-31T12:00:51;76.40;;;35.83;;
27003;SDS011;14546;47.590;19.022;2022-10-31T12:05:51;89.97;;;39.88;;
27003;SDS011;14546;47.590;19.022;2022-10-31T12:08:19;86.32;;;40.05;;
27003;SDS011;14546;47.590;19.022;2022-10-31T12:10:51;87.13;;;38.40;;
27003;SDS011;14546;47.590;19.022;2022-10-31T12:15:53;90.05;;;39.38;;
27003;SDS011;14546;47.590;19.022;2022-10-31T12:18:34;88.37;;;39.43;;
27003;SDS011;14546;47.590;19.022;2022-10-31T12:21:12;84.10;;;38.25;;
27003;SDS011;14546;47.590;19.022;2022-10-31T12:28:54;79.43;;;36.10;;
27003;SDS011;14546;47.590;19.022;2022-10-31T12:33:59;80.38;;;35.97;;
27003;SDS011;14546;47.590;19.022;2022-10-31T12:46:44;75.28;;;36.30;;
27003;SDS011;14546;47.590;19.022;2022-10-31T12:51:48;73.78;;;35.70;;
27003;SDS011;14546;47.590;19.022;2022-10-31T12:54:20;75.70;;;34.80;;
27003;SDS011;14546;47.590;19.022;2022-10-31T12:56:55;70.50;;;34.53;;
27003;SDS011;14546;47.590;19.022;2022-10-31T12:59:30;69.68;;;34.83;;
27003;SDS011;14546;47.590;19.022;2022-10-31T13:02:16;75.50;;;36.40;;
27003;SDS011;14546;47.590;19.022;2022-10-31T13:04:45;77.38;;;34.88;;
27003;SDS011;14546;47.590;19.022;2022-10-31T13:09:56;69.90;;;33.75;;
27003;SDS011;14546;47.590;19.022;2022-10-31T13:12:24;69.13;;;33.58;;
27003;SDS011;14546;47.590;19.022;2022-10-31T13:14:53;66.30;;;33.42;;
27003;SDS011;14546;47.590;19.022;2022-10-31T13:17:30;66.13;;;32.22;;
27003;SDS011;14546;47.590;19.022;2022-10-31T13:20:03;70.40;;;32.83;;
27003;SDS011;14546;47.590;19.022;2022-10-31T13:22:31;68.33;;;32.87;;
27003;SDS011;14546;47.590;19.022;2022-10-31T13:25:15;58.35;;;31.27;;
27003;SDS011;14546;47.590;19.022;2022-10-31T13:27:52;57.47;;;31.60;;
27003;SDS011;14546;47.590;19.022;2022-10-31T13:30:20;62.45;;;31.25;;
27003;SDS011;14546;47.590;19.022;2022-10-31T13:35:16;56.72;;;29.90;;
27003;SDS011;14546;47.590;19.022;2022-10-31T13:37:48;58.70;;;29.83;;
27003;SDS011;14546;47.590;19.022;2022-10-31T13:43:02;59.67;;;29.65;;
27003;SDS011;14546;47.590;19.022;2022-10-31T13:45:31;57.53;;;29.60;;
27003;SDS011;14546;47.590;19.022;2022-10-31T13:47:58;51.65;;;28.25;;
27003;SDS011;14546;47.590;19.022;2022-10-31T13:50:26;51.42;;;28.33;;
27003;SDS011;14546;47.590;19.022;2022-10-31T13:53:03;48.45;;;27.40;;
27003;SDS011;14546;47.590;19.022;2022-10-31T13:55:39;55.25;;;28.95;;
27003;SDS011;14546;47.590;19.022;2022-10-31T13:58:19;54.63;;;28.23;;
27003;SDS011;14546;47.590;19.022;2022-10-31T14:00:45;52.63;;;28.50;;
27003;SDS011;14546;47.590;19.022;2022-10-31T14:03:19;54.15;;;29.52;;
27003;SDS011;14546;47.590;19.022;2022-10-31T14:05:51;51.78;;;29.10;;
27003;SDS011;14546;47.590;19.022;2022-10-31T14:08:18;52.67;;;28.45;;
27003;SDS011;14546;47.590;19.022;2022-10-31T14:10:49;50.53;;;28.75;;
27003;SDS011;14546;47.590;19.022;2022-10-31T14:13:24;51.03;;;28.48;;
27003;SDS011;14546;47.590;19.022;2022-10-31T14:15:55;56.17;;;29.08;;
27003;SDS011;14546;47.590;19.022;2022-10-31T14:18:40;50.10;;;28.67;;
27003;SDS011;14546;47.590;19.022;2022-10-31T14:23:49;54.75;;;29.83;;
27003;SDS011;14546;47.590;19.022;2022-10-31T14:28:44;51.83;;;29.38;;
27003;SDS011;14546;47.590;19.022;2022-10-31T14:31:24;56.20;;;29.08;;
27003;SDS011;14546;47.590;19.022;2022-10-31T14:33:52;52.72;;;28.33;;
27003;SDS011;14546;47.590;19.022;2022-10-31T14:36:21;49.55;;;28.48;;
27003;SDS011;14546;47.590;19.022;2022-10-31T14:38:54;50.30;;;29.48;;
27003;SDS011;14546;47.590;19.022;2022-10-31T14:52:07;42.20;;;25.75;;
27003;SDS011;14546;47.590;19.022;2022-10-31T14:54:40;41.53;;;26.38;;
27003;SDS011;14546;47.590;19.022;2022-10-31T14:59:35;47.35;;;26.65;;
27003;SDS011;14546;47.590;19.022;2022-10-31T15:02:16;43.17;;;26.75;;
27003;SDS011;14546;47.590;19.022;2022-10-31T15:04:44;43.45;;;26.40;;
27003;SDS011;14546;47.590;19.022;2022-10-31T15:07:19;47.67;;;26.23;;
27003;SDS011;14546;47.590;19.022;2022-10-31T15:09:54;45.95;;;27.38;;
27003;SDS011;14546;47.590;19.022;2022-10-31T15:14:46;47.10;;;28.38;;
27003;SDS011;14546;47.590;19.022;2022-10-31T15:17:12;46.55;;;27.73;;
27003;SDS011;14546;47.590;19.022;2022-10-31T15:19:38;47.03;;;27.98;;
27003;SDS011;14546;47.590;19.022;2022-10-31T15:22:04;51.58;;;27.85;;
27003;SDS011;14546;47.590;19.022;2022-10-31T15:24:35;49.35;;;28.52;;
27003;SDS011;14546;47.590;19.022;2022-10-31T15:27:02;42.40;;;27.48;;
27003;SDS011;14546;47.590;19.022;2022-10-31T15:29:28;46.78;;;27.60;;
27003;SDS011;14546;47.590;19.022;2022-10-31T15:31:55;45.65;;;27.85;;
27003;SDS011;14546;47.590;19.022;2022-10-31T15:36:48;41.70;;;26.42;;
27003;SDS011;14546;47.590;19.022;2022-10-31T15:39:17;45.25;;;26.77;;
27003;SDS011;14546;47.590;19.022;2022-10-31T15:41:51;47.15;;;27.52;;
27003;SDS011;14546;47.590;19.022;2022-10-31T15:44:24;51.00;;;29.25;;
27003;SDS011;14546;47.590;19.022;2022-10-31T15:49:23;54.70;;;30.60;;
27003;SDS011;14546;47.590;19.022;2022-10-31T15:51:52;53.78;;;30.27;;
27003;SDS011;14546;47.590;19.022;2022-10-31T15:54:18;51.83;;;31.13;;
27003;SDS011;14546;47.590;19.022;2022-10-31T15:56:44;51.10;;;30.05;;
27003;SDS011;14546;47.590;19.022;2022-10-31T15:59:18;48.20;;;29.15;;
27003;SDS011;14546;47.590;19.022;2022-10-31T16:01:53;53.53;;;28.45;;
27003;SDS011;14546;47.590;19.022;2022-10-31T16:04:22;44.03;;;27.80;;
27003;SDS011;14546;47.590;19.022;2022-10-31T16:09:59;47.90;;;28.38;;
27003;SDS011;14546;47.590;19.022;2022-10-31T16:12:35;47.50;;;27.80;;
27003;SDS011;14546;47.590;19.022;2022-10-31T16:15:02;45.75;;;29.35;;
27003;SDS011;14546;47.590;19.022;2022-10-31T16:17:28;51.30;;;29.35;;
27003;SDS011;14546;47.590;19.022;2022-10-31T16:19:58;50.20;;;28.67;;
27003;SDS011;14546;47.590;19.022;2022-10-31T16:22:46;49.42;;;28.75;;
27003;SDS011;14546;47.590;19.022;2022-10-31T16:25:18;44.15;;;27.95;;
27003;SDS011;14546;47.590;19.022;2022-10-31T16:27:48;45.17;;;29.52;;
27003;SDS011;14546;47.590;19.022;2022-10-31T16:32:54;57.50;;;28.63;;
27003;SDS011;14546;47.590;19.022;2022-10-31T16:35:28;47.58;;;27.33;;
27003;SDS011;14546;47.590;19.022;2022-10-31T16:37:57;43.28;;;26.02;;
27003;SDS011;14546;47.590;19.022;2022-10-31T16:40:23;42.38;;;26.65;;
27003;SDS011;14546;47.590;19.022;2022-10-31T16:42:49;37.83;;;25.30;;